sensor_id;sensor_type;location;lat;lon;timestamp;P1;durP1;ratioP1;P2;durP2;ratioP2
14613;SDS011;7393;51.446;6.800;2023-07-20T00:00:02;5.57;;;3.80;;
14613;SDS011;7393;51.446;6.800;2023-07-20T00:02:30;6.60;;;3.47;;
14613;SDS011;7393;51.446;6.800;2023-07-20T00:04:57;6.17;;;3.63;;
14613;SDS011;7393;51.446;6.800;2023-07-20T00:07:25;5.87;;;3.43;;
14613;SDS011;7393;51.446;6.800;2023-07-20T00:09:52;5.17;;;3.73;;
14613;SDS011;7393;51.446;6.800;2023-07-20T00:12:18;4.93;;;3.10;;
14613;SDS011;7393;51.446;6.800;2023-07-20T00:14:45;3.33;;;2.90;;
14613;SDS011;7393;51.446;6.800;2023-07-20T00:17:12;3.50;;;3.07;;
14613;SDS011;7393;51.446;6.800;2023-07-20T00:19:39;4.07;;;3.10;;
14613;SDS011;7393;51.446;6.800;2023-07-20T00:22:05;4.30;;;2.97;;
14613;SDS011;7393;51.446;6.800;2023-07-20T00:24:34;5.50;;;3.33;;
14613;SDS011;7393;51.446;6.800;2023-07-20T00:27:00;7.17;;;3.70;;
14613;SDS011;7393;51.446;6.800;2023-07-20T00:29:27;5.33;;;2.90;;
14613;SDS011;7393;51.446;6.800;2023-07-20T00:31:55;5.07;;;2.83;;
14613;SDS011;7393;51.446;6.800;2023-07-20T00:34:22;4.77;;;3.20;;
14613;SDS011;7393;51.446;6.800;2023-07-20T00:36:49;4.20;;;3.00;;
14613;SDS011;7393;51.446;6.800;2023-07-20T00:39:15;5.63;;;3.07;;
14613;SDS011;7393;51.446;6.800;2023-07-20T00:41:44;4.53;;;3.70;;
14613;SDS011;7393;51.446;6.800;2023-07-20T00:44:10;3.87;;;3.00;;
14613;SDS011;7393;51.446;6.800;2023-07-20T00:46:37;5.53;;;3.10;;
14613;SDS011;7393;51.446;6.800;2023-07-20T00:49:06;7.40;;;2.93;;
14613;SDS011;7393;51.446;6.800;2023-07-20T00:51:33;4.63;;;3.33;;
14613;SDS011;7393;51.446;6.800;2023-07-20T00:54:00;5.70;;;3.43;;
14613;SDS011;7393;51.446;6.800;2023-07-20T00:56:27;6.17;;;3.00;;
14613;SDS011;7393;51.446;6.800;2023-07-20T00:58:56;6.23;;;3.30;;
14613;SDS011;7393;51.446;6.800;2023-07-20T01:01:23;5.10;;;3.00;;
14613;SDS011;7393;51.446;6.800;2023-07-20T01:03:49;5.50;;;3.00;;
14613;SDS011;7393;51.446;6.800;2023-07-20T01:06:19;5.30;;;3.07;;
14613;SDS011;7393;51.446;6.800;2023-07-20T01:08:57;4.07;;;2.90;;
14613;SDS011;7393;51.446;6.800;2023-07-20T01:11:36;4.57;;;3.00;;
14613;SDS011;7393;51.446;6.800;2023-07-20T01:14:06;4.20;;;3.20;;
14613;SDS011;7393;51.446;6.800;2023-07-20T01:16:34;5.07;;;3.17;;
14613;SDS011;7393;51.446;6.800;2023-07-20T01:19:00;5.47;;;3.33;;
14613;SDS011;7393;51.446;6.800;2023-07-20T01:21:30;4.83;;;3.17;;
14613;SDS011;7393;51.446;6.800;2023-07-20T01:24:05;6.87;;;3.13;;
14613;SDS011;7393;51.446;6.800;2023-07-20T01:27:00;7.30;;;3.30;;
14613;SDS011;7393;51.446;6.800;2023-07-20T01:30:07;5.23;;;3.00;;
14613;SDS011;7393;51.446;6.800;2023-07-20T01:32:43;5.33;;;3.40;;
14613;SDS011;7393;51.446;6.800;2023-07-20T01:35:13;5.27;;;3.50;;
14613;SDS011;7393;51.446;6.800;2023-07-20T01:37:42;5.23;;;3.43;;
14613;SDS011;7393;51.446;6.800;2023-07-20T01:40:11;6.40;;;3.57;;
14613;SDS011;7393;51.446;6.800;2023-07-20T01:42:42;4.43;;;3.70;;
14613;SDS011;7393;51.446;6.800;2023-07-20T01:45:11;6.23;;;3.73;;
14613;SDS011;7393;51.446;6.800;2023-07-20T01:47:38;5.37;;;3.70;;
14613;SDS011;7393;51.446;6.800;2023-07-20T01:50:07;5.10;;;3.77;;
14613;SDS011;7393;51.446;6.800;2023-07-20T01:52:34;5.47;;;3.77;;
14613;SDS011;7393;51.446;6.800;2023-07-20T01:55:01;6.40;;;4.37;;
14613;SDS011;7393;51.446;6.800;2023-07-20T01:57:29;8.13;;;4.50;;
14613;SDS011;7393;51.446;6.800;2023-07-20T01:59:56;7.63;;;4.60;;
14613;SDS011;7393;51.446;6.800;2023-07-20T02:02:23;6.40;;;3.93;;
14613;SDS011;7393;51.446;6.800;2023-07-20T02:04:52;7.20;;;4.27;;
14613;SDS011;7393;51.446;6.800;2023-07-20T02:07:21;7.03;;;4.47;;
14613;SDS011;7393;51.446;6.800;2023-07-20T02:09:48;6.07;;;4.10;;
14613;SDS011;7393;51.446;6.800;2023-07-20T02:12:14;5.83;;;4.17;;
14613;SDS011;7393;51.446;6.800;2023-07-20T02:14:41;6.90;;;4.30;;
14613;SDS011;7393;51.446;6.800;2023-07-20T02:17:08;5.80;;;4.47;;
14613;SDS011;7393;51.446;6.800;2023-07-20T02:19:36;12.03;;;4.60;;
14613;SDS011;7393;51.446;6.800;2023-07-20T02:22:03;7.47;;;4.60;;
14613;SDS011;7393;51.446;6.800;2023-07-20T02:24:32;7.30;;;4.73;;
14613;SDS011;7393;51.446;6.800;2023-07-20T02:26:59;12.40;;;5.23;;
14613;SDS011;7393;51.446;6.800;2023-07-20T02:29:26;10.27;;;5.40;;
14613;SDS011;7393;51.446;6.800;2023-07-20T02:31:53;7.67;;;4.73;;
14613;SDS011;7393;51.446;6.800;2023-07-20T02:34:19;7.73;;;5.07;;
14613;SDS011;7393;51.446;6.800;2023-07-20T02:36:46;8.57;;;5.90;;
14613;SDS011;7393;51.446;6.800;2023-07-20T02:39:13;8.67;;;5.40;;
14613;SDS011;7393;51.446;6.800;2023-07-20T02:41:41;8.20;;;5.30;;
14613;SDS011;7393;51.446;6.800;2023-07-20T02:44:08;6.53;;;5.13;;
14613;SDS011;7393;51.446;6.800;2023-07-20T02:46:35;10.13;;;5.87;;
14613;SDS011;7393;51.446;6.800;2023-07-20T02:49:01;9.00;;;6.30;;
14613;SDS011;7393;51.446;6.800;2023-07-20T02:51:29;9.23;;;6.50;;
14613;SDS011;7393;51.446;6.800;2023-07-20T02:53:56;6.77;;;5.67;;
14613;SDS011;7393;51.446;6.800;2023-07-20T02:56:23;10.90;;;6.50;;
14613;SDS011;7393;51.446;6.800;2023-07-20T02:58:51;8.93;;;6.70;;
14613;SDS011;7393;51.446;6.800;2023-07-20T03:01:18;8.93;;;7.30;;
14613;SDS011;7393;51.446;6.800;2023-07-20T03:03:45;8.40;;;6.77;;
14613;SDS011;7393;51.446;6.800;2023-07-20T03:06:12;10.27;;;7.00;;
14613;SDS011;7393;51.446;6.800;2023-07-20T03:08:39;11.27;;;7.20;;
14613;SDS011;7393;51.446;6.800;2023-07-20T03:11:10;8.83;;;7.57;;
14613;SDS011;7393;51.446;6.800;2023-07-20T03:13:37;10.90;;;7.53;;
14613;SDS011;7393;51.446;6.800;2023-07-20T03:16:05;12.37;;;7.83;;
14613;SDS011;7393;51.446;6.800;2023-07-20T03:18:36;12.37;;;7.37;;
14613;SDS011;7393;51.446;6.800;2023-07-20T03:21:03;9.40;;;6.90;;
14613;SDS011;7393;51.446;6.800;2023-07-20T03:23:29;9.73;;;6.80;;
14613;SDS011;7393;51.446;6.800;2023-07-20T03:25:56;8.47;;;5.93;;
14613;SDS011;7393;51.446;6.800;2023-07-20T03:28:23;11.33;;;7.00;;
14613;SDS011;7393;51.446;6.800;2023-07-20T03:30:52;7.93;;;6.50;;
14613;SDS011;7393;51.446;6.800;2023-07-20T03:33:21;10.93;;;6.90;;
14613;SDS011;7393;51.446;6.800;2023-07-20T03:35:48;11.57;;;6.63;;
14613;SDS011;7393;51.446;6.800;2023-07-20T03:38:14;11.63;;;7.20;;
14613;SDS011;7393;51.446;6.800;2023-07-20T03:40:48;10.07;;;7.10;;
14613;SDS011;7393;51.446;6.800;2023-07-20T03:43:14;12.07;;;8.07;;
14613;SDS011;7393;51.446;6.800;2023-07-20T03:45:41;10.57;;;8.03;;
14613;SDS011;7393;51.446;6.800;2023-07-20T03:48:08;11.57;;;8.67;;
14613;SDS011;7393;51.446;6.800;2023-07-20T03:50:36;12.23;;;8.20;;
14613;SDS011;7393;51.446;6.800;2023-07-20T03:53:03;12.23;;;8.30;;
14613;SDS011;7393;51.446;6.800;2023-07-20T03:55:30;16.67;;;9.67;;
14613;SDS011;7393;51.446;6.800;2023-07-20T03:57:56;11.17;;;8.77;;
14613;SDS011;7393;51.446;6.800;2023-07-20T04:00:23;12.37;;;8.67;;
14613;SDS011;7393;51.446;6.800;2023-07-20T04:02:50;14.40;;;10.23;;
14613;SDS011;7393;51.446;6.800;2023-07-20T04:05:17;11.90;;;9.90;;
14613;SDS011;7393;51.446;6.800;2023-07-20T04:07:45;16.70;;;11.03;;
14613;SDS011;7393;51.446;6.800;2023-07-20T04:10:12;17.13;;;12.13;;
14613;SDS011;7393;51.446;6.800;2023-07-20T04:12:39;17.57;;;12.50;;
14613;SDS011;7393;51.446;6.800;2023-07-20T04:15:06;17.63;;;13.27;;
14613;SDS011;7393;51.446;6.800;2023-07-20T04:17:34;15.67;;;12.97;;
14613;SDS011;7393;51.446;6.800;2023-07-20T04:20:01;14.73;;;12.10;;
14613;SDS011;7393;51.446;6.800;2023-07-20T04:22:30;15.90;;;11.50;;
14613;SDS011;7393;51.446;6.800;2023-07-20T04:24:58;13.87;;;11.90;;
14613;SDS011;7393;51.446;6.800;2023-07-20T04:27:25;11.43;;;9.47;;
14613;SDS011;7393;51.446;6.800;2023-07-20T04:29:52;14.27;;;10.77;;
14613;SDS011;7393;51.446;6.800;2023-07-20T04:32:19;12.83;;;11.43;;
14613;SDS011;7393;51.446;6.800;2023-07-20T04:34:46;13.37;;;11.73;;
14613;SDS011;7393;51.446;6.800;2023-07-20T04:37:13;19.53;;;14.20;;
14613;SDS011;7393;51.446;6.800;2023-07-20T04:39:40;17.00;;;12.37;;
14613;SDS011;7393;51.446;6.800;2023-07-20T04:42:08;17.50;;;11.33;;
14613;SDS011;7393;51.446;6.800;2023-07-20T04:44:35;16.50;;;12.10;;
14613;SDS011;7393;51.446;6.800;2023-07-20T04:47:02;15.17;;;11.07;;
14613;SDS011;7393;51.446;6.800;2023-07-20T04:49:29;15.57;;;12.70;;
14613;SDS011;7393;51.446;6.800;2023-07-20T04:51:56;12.23;;;10.57;;
14613;SDS011;7393;51.446;6.800;2023-07-20T04:54:22;11.53;;;9.87;;
14613;SDS011;7393;51.446;6.800;2023-07-20T04:56:49;10.87;;;8.23;;
14613;SDS011;7393;51.446;6.800;2023-07-20T04:59:17;12.60;;;8.30;;
14613;SDS011;7393;51.446;6.800;2023-07-20T05:01:44;8.47;;;6.97;;
14613;SDS011;7393;51.446;6.800;2023-07-20T05:04:11;8.77;;;7.87;;
14613;SDS011;7393;51.446;6.800;2023-07-20T05:06:38;9.80;;;8.50;;
14613;SDS011;7393;51.446;6.800;2023-07-20T05:09:05;7.97;;;6.53;;
14613;SDS011;7393;51.446;6.800;2023-07-20T05:11:32;7.13;;;6.23;;
14613;SDS011;7393;51.446;6.800;2023-07-20T05:13:59;7.60;;;6.50;;
14613;SDS011;7393;51.446;6.800;2023-07-20T05:16:28;7.60;;;6.00;;
14613;SDS011;7393;51.446;6.800;2023-07-20T05:18:55;8.13;;;5.93;;
14613;SDS011;7393;51.446;6.800;2023-07-20T05:21:22;6.93;;;6.23;;
14613;SDS011;7393;51.446;6.800;2023-07-20T05:23:49;7.43;;;6.10;;
14613;SDS011;7393;51.446;6.800;2023-07-20T05:26:16;10.17;;;5.40;;
14613;SDS011;7393;51.446;6.800;2023-07-20T05:28:42;7.00;;;5.93;;
14613;SDS011;7393;51.446;6.800;2023-07-20T05:31:09;7.07;;;4.70;;
14613;SDS011;7393;51.446;6.800;2023-07-20T05:33:37;7.40;;;5.00;;
14613;SDS011;7393;51.446;6.800;2023-07-20T05:36:04;6.77;;;5.00;;
14613;SDS011;7393;51.446;6.800;2023-07-20T05:38:31;7.97;;;4.90;;
14613;SDS011;7393;51.446;6.800;2023-07-20T05:40:59;5.70;;;4.93;;
14613;SDS011;7393;51.446;6.800;2023-07-20T05:43:28;5.30;;;4.80;;
14613;SDS011;7393;51.446;6.800;2023-07-20T05:45:56;5.23;;;4.73;;
14613;SDS011;7393;51.446;6.800;2023-07-20T05:48:23;6.40;;;4.97;;
14613;SDS011;7393;51.446;6.800;2023-07-20T05:50:51;5.30;;;4.80;;
14613;SDS011;7393;51.446;6.800;2023-07-20T05:53:18;5.27;;;4.77;;
14613;SDS011;7393;51.446;6.800;2023-07-20T05:55:51;6.63;;;4.80;;
14613;SDS011;7393;51.446;6.800;2023-07-20T05:58:18;5.00;;;4.40;;
14613;SDS011;7393;51.446;6.800;2023-07-20T06:00:47;5.03;;;4.53;;
14613;SDS011;7393;51.446;6.800;2023-07-20T06:03:14;4.83;;;4.33;;
14613;SDS011;7393;51.446;6.800;2023-07-20T06:05:42;4.27;;;3.87;;
14613;SDS011;7393;51.446;6.800;2023-07-20T06:08:10;4.83;;;4.03;;
14613;SDS011;7393;51.446;6.800;2023-07-20T06:10:37;3.70;;;3.40;;
14613;SDS011;7393;51.446;6.800;2023-07-20T06:13:03;4.63;;;3.60;;
14613;SDS011;7393;51.446;6.800;2023-07-20T06:15:31;4.00;;;3.60;;
14613;SDS011;7393;51.446;6.800;2023-07-20T06:18:00;5.30;;;3.63;;
14613;SDS011;7393;51.446;6.800;2023-07-20T06:20:28;5.43;;;4.10;;
14613;SDS011;7393;51.446;6.800;2023-07-20T06:22:55;4.53;;;3.60;;
14613;SDS011;7393;51.446;6.800;2023-07-20T06:25:24;5.73;;;4.83;;
14613;SDS011;7393;51.446;6.800;2023-07-20T06:27:51;6.10;;;5.43;;
14613;SDS011;7393;51.446;6.800;2023-07-20T06:30:18;9.63;;;7.27;;
14613;SDS011;7393;51.446;6.800;2023-07-20T06:32:45;7.57;;;5.90;;
14613;SDS011;7393;51.446;6.800;2023-07-20T06:35:12;3.93;;;3.63;;
14613;SDS011;7393;51.446;6.800;2023-07-20T06:37:39;4.30;;;3.90;;
14613;SDS011;7393;51.446;6.800;2023-07-20T06:40:07;3.20;;;2.90;;
14613;SDS011;7393;51.446;6.800;2023-07-20T06:42:36;3.93;;;3.53;;
14613;SDS011;7393;51.446;6.800;2023-07-20T06:45:03;3.83;;;3.20;;
14613;SDS011;7393;51.446;6.800;2023-07-20T06:47:30;4.37;;;3.10;;
14613;SDS011;7393;51.446;6.800;2023-07-20T06:49:57;3.00;;;2.33;;
14613;SDS011;7393;51.446;6.800;2023-07-20T06:52:24;2.70;;;2.37;;
14613;SDS011;7393;51.446;6.800;2023-07-20T06:54:51;2.60;;;2.40;;
14613;SDS011;7393;51.446;6.800;2023-07-20T06:57:18;2.67;;;2.03;;
14613;SDS011;7393;51.446;6.800;2023-07-20T06:59:46;4.60;;;2.40;;
14613;SDS011;7393;51.446;6.800;2023-07-20T07:02:13;3.40;;;2.40;;
14613;SDS011;7393;51.446;6.800;2023-07-20T07:04:40;2.90;;;2.60;;
14613;SDS011;7393;51.446;6.800;2023-07-20T07:07:07;2.43;;;2.23;;
14613;SDS011;7393;51.446;6.800;2023-07-20T07:09:35;2.03;;;1.83;;
14613;SDS011;7393;51.446;6.800;2023-07-20T07:12:01;2.30;;;2.00;;
14613;SDS011;7393;51.446;6.800;2023-07-20T07:14:28;2.40;;;2.03;;
14613;SDS011;7393;51.446;6.800;2023-07-20T07:16:57;1.70;;;1.60;;
14613;SDS011;7393;51.446;6.800;2023-07-20T07:19:24;2.30;;;2.10;;
14613;SDS011;7393;51.446;6.800;2023-07-20T07:21:50;2.47;;;2.27;;
14613;SDS011;7393;51.446;6.800;2023-07-20T07:24:17;1.80;;;1.70;;
14613;SDS011;7393;51.446;6.800;2023-07-20T07:26:44;1.70;;;1.50;;
14613;SDS011;7393;51.446;6.800;2023-07-20T07:29:11;1.93;;;1.60;;
14613;SDS011;7393;51.446;6.800;2023-07-20T07:31:37;2.47;;;2.20;;
14613;SDS011;7393;51.446;6.800;2023-07-20T07:34:06;8.37;;;6.40;;
14613;SDS011;7393;51.446;6.800;2023-07-20T07:36:32;7.60;;;6.40;;
14613;SDS011;7393;51.446;6.800;2023-07-20T07:38:59;6.57;;;4.90;;
14613;SDS011;7393;51.446;6.800;2023-07-20T07:41:26;7.83;;;5.93;;
14613;SDS011;7393;51.446;6.800;2023-07-20T07:43:53;4.90;;;4.40;;
14613;SDS011;7393;51.446;6.800;2023-07-20T07:46:19;3.10;;;2.73;;
14613;SDS011;7393;51.446;6.800;2023-07-20T07:48:46;2.40;;;2.20;;
14613;SDS011;7393;51.446;6.800;2023-07-20T07:51:15;3.00;;;2.40;;
14613;SDS011;7393;51.446;6.800;2023-07-20T07:53:41;6.00;;;3.60;;
14613;SDS011;7393;51.446;6.800;2023-07-20T07:56:09;4.70;;;3.90;;
14613;SDS011;7393;51.446;6.800;2023-07-20T07:58:35;2.90;;;2.60;;
14613;SDS011;7393;51.446;6.800;2023-07-20T08:01:02;3.03;;;2.73;;
14613;SDS011;7393;51.446;6.800;2023-07-20T08:03:29;3.90;;;2.23;;
14613;SDS011;7393;51.446;6.800;2023-07-20T08:05:56;2.57;;;1.90;;
14613;SDS011;7393;51.446;6.800;2023-07-20T08:08:25;3.90;;;1.70;;
14613;SDS011;7393;51.446;6.800;2023-07-20T08:10:52;2.83;;;2.50;;
14613;SDS011;7393;51.446;6.800;2023-07-20T08:13:20;2.27;;;1.90;;
14613;SDS011;7393;51.446;6.800;2023-07-20T08:15:49;1.57;;;1.30;;
14613;SDS011;7393;51.446;6.800;2023-07-20T08:18:17;1.53;;;1.33;;
14613;SDS011;7393;51.446;6.800;2023-07-20T08:20:44;2.03;;;1.50;;
14613;SDS011;7393;51.446;6.800;2023-07-20T08:23:11;1.63;;;1.50;;
14613;SDS011;7393;51.446;6.800;2023-07-20T08:25:40;2.67;;;1.90;;
14613;SDS011;7393;51.446;6.800;2023-07-20T08:28:09;4.63;;;2.13;;
14613;SDS011;7393;51.446;6.800;2023-07-20T08:30:39;1.50;;;1.40;;
14613;SDS011;7393;51.446;6.800;2023-07-20T08:33:09;2.00;;;1.80;;
14613;SDS011;7393;51.446;6.800;2023-07-20T08:35:36;5.93;;;3.63;;
14613;SDS011;7393;51.446;6.800;2023-07-20T08:38:03;6.70;;;5.57;;
14613;SDS011;7393;51.446;6.800;2023-07-20T08:40:30;5.73;;;5.20;;
14613;SDS011;7393;51.446;6.800;2023-07-20T08:42:59;6.67;;;6.07;;
14613;SDS011;7393;51.446;6.800;2023-07-20T08:45:27;6.00;;;5.23;;
14613;SDS011;7393;51.446;6.800;2023-07-20T08:47:55;5.90;;;4.37;;
14613;SDS011;7393;51.446;6.800;2023-07-20T08:50:24;4.40;;;3.60;;
14613;SDS011;7393;51.446;6.800;2023-07-20T08:52:52;4.17;;;3.33;;
14613;SDS011;7393;51.446;6.800;2023-07-20T08:55:20;3.43;;;3.13;;
14613;SDS011;7393;51.446;6.800;2023-07-20T08:57:48;4.60;;;3.20;;
14613;SDS011;7393;51.446;6.800;2023-07-20T09:00:20;4.23;;;3.70;;
14613;SDS011;7393;51.446;6.800;2023-07-20T09:02:48;4.87;;;3.10;;
14613;SDS011;7393;51.446;6.800;2023-07-20T09:05:16;4.17;;;2.10;;
14613;SDS011;7393;51.446;6.800;2023-07-20T09:07:43;3.43;;;2.50;;
14613;SDS011;7393;51.446;6.800;2023-07-20T09:10:10;3.30;;;3.00;;
14613;SDS011;7393;51.446;6.800;2023-07-20T09:12:38;5.00;;;3.40;;
14613;SDS011;7393;51.446;6.800;2023-07-20T09:15:06;3.53;;;2.73;;
14613;SDS011;7393;51.446;6.800;2023-07-20T09:17:35;3.07;;;2.33;;
14613;SDS011;7393;51.446;6.800;2023-07-20T09:20:04;4.53;;;2.10;;
14613;SDS011;7393;51.446;6.800;2023-07-20T09:22:33;3.70;;;2.50;;
14613;SDS011;7393;51.446;6.800;2023-07-20T09:25:01;1.80;;;1.70;;
14613;SDS011;7393;51.446;6.800;2023-07-20T09:27:34;1.83;;;1.30;;
14613;SDS011;7393;51.446;6.800;2023-07-20T09:30:02;1.57;;;1.10;;
14613;SDS011;7393;51.446;6.800;2023-07-20T09:32:30;2.43;;;1.37;;
14613;SDS011;7393;51.446;6.800;2023-07-20T09:34:58;1.60;;;1.50;;
14613;SDS011;7393;51.446;6.800;2023-07-20T09:37:25;2.60;;;1.27;;
14613;SDS011;7393;51.446;6.800;2023-07-20T09:39:52;2.70;;;1.43;;
14613;SDS011;7393;51.446;6.800;2023-07-20T09:42:20;1.50;;;1.40;;
14613;SDS011;7393;51.446;6.800;2023-07-20T09:44:50;3.03;;;1.60;;
14613;SDS011;7393;51.446;6.800;2023-07-20T09:47:21;1.43;;;1.30;;
14613;SDS011;7393;51.446;6.800;2023-07-20T09:49:48;1.23;;;1.13;;
14613;SDS011;7393;51.446;6.800;2023-07-20T09:52:17;2.13;;;1.50;;
14613;SDS011;7393;51.446;6.800;2023-07-20T09:54:44;3.83;;;1.43;;
14613;SDS011;7393;51.446;6.800;2023-07-20T09:57:12;1.70;;;1.00;;
14613;SDS011;7393;51.446;6.800;2023-07-20T09:59:39;1.13;;;1.00;;
14613;SDS011;7393;51.446;6.800;2023-07-20T10:02:10;5.07;;;1.20;;
14613;SDS011;7393;51.446;6.800;2023-07-20T10:04:43;2.30;;;1.27;;
14613;SDS011;7393;51.446;6.800;2023-07-20T10:07:10;1.80;;;1.50;;
14613;SDS011;7393;51.446;6.800;2023-07-20T10:09:39;3.77;;;1.47;;
14613;SDS011;7393;51.446;6.800;2023-07-20T10:12:07;1.93;;;1.40;;
14613;SDS011;7393;51.446;6.800;2023-07-20T10:14:36;2.63;;;1.47;;
14613;SDS011;7393;51.446;6.800;2023-07-20T10:17:07;1.77;;;1.50;;
14613;SDS011;7393;51.446;6.800;2023-07-20T10:19:41;2.03;;;1.20;;
14613;SDS011;7393;51.446;6.800;2023-07-20T10:22:10;2.33;;;1.20;;
14613;SDS011;7393;51.446;6.800;2023-07-20T10:24:44;1.63;;;1.17;;
14613;SDS011;7393;51.446;6.800;2023-07-20T10:27:12;2.37;;;1.30;;
14613;SDS011;7393;51.446;6.800;2023-07-20T10:29:39;2.27;;;1.27;;
14613;SDS011;7393;51.446;6.800;2023-07-20T10:32:07;1.53;;;1.10;;
14613;SDS011;7393;51.446;6.800;2023-07-20T10:34:35;3.47;;;1.40;;
14613;SDS011;7393;51.446;6.800;2023-07-20T10:37:02;2.37;;;1.23;;
14613;SDS011;7393;51.446;6.800;2023-07-20T10:39:30;1.70;;;1.30;;
14613;SDS011;7393;51.446;6.800;2023-07-20T10:42:01;3.17;;;1.50;;
14613;SDS011;7393;51.446;6.800;2023-07-20T10:44:29;2.27;;;1.33;;
14613;SDS011;7393;51.446;6.800;2023-07-20T10:47:00;3.23;;;1.70;;
14613;SDS011;7393;51.446;6.800;2023-07-20T10:49:27;1.80;;;1.53;;
14613;SDS011;7393;51.446;6.800;2023-07-20T10:51:58;1.63;;;1.33;;
14613;SDS011;7393;51.446;6.800;2023-07-20T10:57:23;1.50;;;1.30;;
14613;SDS011;7393;51.446;6.800;2023-07-20T10:59:56;2.03;;;1.20;;
14613;SDS011;7393;51.446;6.800;2023-07-20T11:02:41;1.47;;;1.20;;
14613;SDS011;7393;51.446;6.800;2023-07-20T11:08:05;0.73;;;0.73;;
14613;SDS011;7393;51.446;6.800;2023-07-20T11:10:35;2.00;;;1.00;;
14613;SDS011;7393;51.446;6.800;2023-07-20T11:13:22;2.43;;;0.83;;
14613;SDS011;7393;51.446;6.800;2023-07-20T11:16:03;0.93;;;0.60;;
14613;SDS011;7393;51.446;6.800;2023-07-20T11:18:32;2.97;;;0.60;;
14613;SDS011;7393;51.446;6.800;2023-07-20T11:21:00;2.28;;;0.80;;
14613;SDS011;7393;51.446;6.800;2023-07-20T11:23:27;1.30;;;0.70;;
14613;SDS011;7393;51.446;6.800;2023-07-20T11:25:58;1.42;;;1.00;;
14613;SDS011;7393;51.446;6.800;2023-07-20T11:28:26;2.47;;;1.02;;
14613;SDS011;7393;51.446;6.800;2023-07-20T11:30:56;2.67;;;1.00;;
14613;SDS011;7393;51.446;6.800;2023-07-20T11:33:23;2.22;;;1.13;;
14613;SDS011;7393;51.446;6.800;2023-07-20T11:35:50;0.93;;;0.88;;
14613;SDS011;7393;51.446;6.800;2023-07-20T11:38:17;2.47;;;1.00;;
14613;SDS011;7393;51.446;6.800;2023-07-20T11:40:45;3.97;;;0.80;;
14613;SDS011;7393;51.446;6.800;2023-07-20T11:43:12;0.73;;;0.70;;
14613;SDS011;7393;51.446;6.800;2023-07-20T11:45:40;1.20;;;0.88;;
14613;SDS011;7393;51.446;6.800;2023-07-20T11:48:07;2.60;;;0.80;;
14613;SDS011;7393;51.446;6.800;2023-07-20T11:50:40;1.95;;;0.98;;
14613;SDS011;7393;51.446;6.800;2023-07-20T11:53:07;1.48;;;1.05;;
14613;SDS011;7393;51.446;6.800;2023-07-20T11:55:34;1.10;;;1.00;;
14613;SDS011;7393;51.446;6.800;2023-07-20T11:58:03;3.30;;;1.20;;
14613;SDS011;7393;51.446;6.800;2023-07-20T12:00:30;2.22;;;1.13;;
14613;SDS011;7393;51.446;6.800;2023-07-20T12:02:59;3.35;;;1.25;;
14613;SDS011;7393;51.446;6.800;2023-07-20T12:05:26;1.30;;;1.00;;
14613;SDS011;7393;51.446;6.800;2023-07-20T12:07:54;1.92;;;0.90;;
14613;SDS011;7393;51.446;6.800;2023-07-20T12:10:24;2.17;;;1.25;;
14613;SDS011;7393;51.446;6.800;2023-07-20T12:12:52;4.03;;;1.15;;
14613;SDS011;7393;51.446;6.800;2023-07-20T12:15:20;1.33;;;1.00;;
14613;SDS011;7393;51.446;6.800;2023-07-20T12:17:49;1.67;;;0.90;;
14613;SDS011;7393;51.446;6.800;2023-07-20T12:20:25;1.73;;;0.90;;
14613;SDS011;7393;51.446;6.800;2023-07-20T12:22:55;3.08;;;1.35;;
14613;SDS011;7393;51.446;6.800;2023-07-20T12:25:31;1.58;;;1.10;;
14613;SDS011;7393;51.446;6.800;2023-07-20T12:28:00;2.22;;;1.35;;
14613;SDS011;7393;51.446;6.800;2023-07-20T12:30:28;2.05;;;0.90;;
14613;SDS011;7393;51.446;6.800;2023-07-20T12:32:55;1.35;;;0.88;;
14613;SDS011;7393;51.446;6.800;2023-07-20T12:35:22;3.88;;;1.10;;
14613;SDS011;7393;51.446;6.800;2023-07-20T12:37:50;2.33;;;1.02;;
14613;SDS011;7393;51.446;6.800;2023-07-20T12:40:18;1.10;;;0.80;;
14613;SDS011;7393;51.446;6.800;2023-07-20T12:42:46;1.55;;;0.90;;
14613;SDS011;7393;51.446;6.800;2023-07-20T12:45:12;1.40;;;0.90;;
14613;SDS011;7393;51.446;6.800;2023-07-20T12:47:40;1.30;;;0.90;;
14613;SDS011;7393;51.446;6.800;2023-07-20T12:50:08;1.58;;;0.60;;
14613;SDS011;7393;51.446;6.800;2023-07-20T12:52:35;1.35;;;0.70;;
14613;SDS011;7393;51.446;6.800;2023-07-20T12:55:05;0.93;;;0.73;;
14613;SDS011;7393;51.446;6.800;2023-07-20T12:57:32;0.75;;;0.50;;
14613;SDS011;7393;51.446;6.800;2023-07-20T13:00:00;2.72;;;1.08;;
14613;SDS011;7393;51.446;6.800;2023-07-20T13:02:26;1.23;;;1.05;;
14613;SDS011;7393;51.446;6.800;2023-07-20T13:04:53;5.07;;;1.30;;
14613;SDS011;7393;51.446;6.800;2023-07-20T13:07:28;2.22;;;1.10;;
14613;SDS011;7393;51.446;6.800;2023-07-20T13:09:56;2.17;;;1.15;;
14613;SDS011;7393;51.446;6.800;2023-07-20T13:12:26;1.90;;;1.10;;
14613;SDS011;7393;51.446;6.800;2023-07-20T13:14:54;1.25;;;1.10;;
14613;SDS011;7393;51.446;6.800;2023-07-20T13:17:21;1.33;;;0.85;;
14613;SDS011;7393;51.446;6.800;2023-07-20T13:19:48;1.15;;;0.77;;
14613;SDS011;7393;51.446;6.800;2023-07-20T13:22:15;1.85;;;0.80;;
14613;SDS011;7393;51.446;6.800;2023-07-20T13:24:43;0.85;;;0.70;;
14613;SDS011;7393;51.446;6.800;2023-07-20T13:27:11;2.95;;;0.90;;
14613;SDS011;7393;51.446;6.800;2023-07-20T13:29:39;1.70;;;0.90;;
14613;SDS011;7393;51.446;6.800;2023-07-20T13:32:07;2.00;;;1.13;;
14613;SDS011;7393;51.446;6.800;2023-07-20T13:34:34;1.50;;;0.70;;
14613;SDS011;7393;51.446;6.800;2023-07-20T13:37:02;1.15;;;0.82;;
14613;SDS011;7393;51.446;6.800;2023-07-20T13:39:29;1.63;;;1.15;;
14613;SDS011;7393;51.446;6.800;2023-07-20T13:41:56;1.30;;;0.63;;
14613;SDS011;7393;51.446;6.800;2023-07-20T13:44:23;1.13;;;0.80;;
14613;SDS011;7393;51.446;6.800;2023-07-20T13:46:51;1.40;;;1.10;;
14613;SDS011;7393;51.446;6.800;2023-07-20T13:49:18;0.75;;;0.70;;
14613;SDS011;7393;51.446;6.800;2023-07-20T13:51:45;5.10;;;1.30;;
14613;SDS011;7393;51.446;6.800;2023-07-20T13:54:12;3.50;;;1.50;;
14613;SDS011;7393;51.446;6.800;2023-07-20T13:56:38;2.22;;;1.10;;
14613;SDS011;7393;51.446;6.800;2023-07-20T13:59:05;1.15;;;0.88;;
14613;SDS011;7393;51.446;6.800;2023-07-20T14:01:32;2.10;;;1.13;;
14613;SDS011;7393;51.446;6.800;2023-07-20T14:04:01;2.08;;;0.80;;
14613;SDS011;7393;51.446;6.800;2023-07-20T14:06:29;1.40;;;0.80;;
14613;SDS011;7393;51.446;6.800;2023-07-20T14:08:57;2.80;;;1.15;;
14613;SDS011;7393;51.446;6.800;2023-07-20T14:11:24;3.05;;;1.17;;
14613;SDS011;7393;51.446;6.800;2023-07-20T14:13:52;1.33;;;0.82;;
14613;SDS011;7393;51.446;6.800;2023-07-20T14:16:19;1.55;;;1.25;;
14613;SDS011;7393;51.446;6.800;2023-07-20T14:18:46;1.48;;;0.70;;
14613;SDS011;7393;51.446;6.800;2023-07-20T14:21:15;2.10;;;1.90;;
14613;SDS011;7393;51.446;6.800;2023-07-20T14:23:44;2.55;;;1.58;;
14613;SDS011;7393;51.446;6.800;2023-07-20T14:26:11;3.13;;;0.80;;
14613;SDS011;7393;51.446;6.800;2023-07-20T14:28:38;2.55;;;1.10;;
14613;SDS011;7393;51.446;6.800;2023-07-20T14:31:05;1.55;;;1.00;;
14613;SDS011;7393;51.446;6.800;2023-07-20T14:33:32;1.42;;;1.10;;
14613;SDS011;7393;51.446;6.800;2023-07-20T14:36:00;1.88;;;1.35;;
14613;SDS011;7393;51.446;6.800;2023-07-20T14:38:29;2.30;;;1.40;;
14613;SDS011;7393;51.446;6.800;2023-07-20T14:40:57;2.13;;;1.90;;
14613;SDS011;7393;51.446;6.800;2023-07-20T14:43:23;3.55;;;2.50;;
14613;SDS011;7393;51.446;6.800;2023-07-20T14:45:50;2.05;;;1.42;;
14613;SDS011;7393;51.446;6.800;2023-07-20T14:48:17;1.50;;;1.20;;
14613;SDS011;7393;51.446;6.800;2023-07-20T14:50:44;2.05;;;1.50;;
14613;SDS011;7393;51.446;6.800;2023-07-20T14:53:12;1.70;;;1.05;;
14613;SDS011;7393;51.446;6.800;2023-07-20T14:55:41;2.35;;;0.82;;
14613;SDS011;7393;51.446;6.800;2023-07-20T14:58:08;1.92;;;1.40;;
14613;SDS011;7393;51.446;6.800;2023-07-20T15:00:35;2.20;;;1.40;;
14613;SDS011;7393;51.446;6.800;2023-07-20T15:03:02;1.73;;;1.30;;
14613;SDS011;7393;51.446;6.800;2023-07-20T15:05:29;2.92;;;0.98;;
14613;SDS011;7393;51.446;6.800;2023-07-20T15:07:56;1.88;;;1.40;;